sensor_id;sensor_type;location;lat;lon;timestamp;pressure;altitude;pressure_sealevel;temperature;humidity
17362;BME280;8798;51.938;4.348;2022-10-31T00:01:24;101663.13;;;15.59;72.81
17362;BME280;8798;51.938;4.348;2022-10-31T00:03:54;101667.84;;;15.57;72.65
17362;BME280;8798;51.938;4.348;2022-10-31T00:06:22;101672.41;;;15.56;72.64
17362;BME280;8798;51.938;4.348;2022-10-31T00:08:53;101680.34;;;15.58;72.70
17362;BME280;8798;51.938;4.348;2022-10-31T00:11:21;101686.81;;;15.57;72.92
17362;BME280;8798;51.938;4.348;2022-10-31T00:13:49;101689.50;;;15.57;72.62
17362;BME280;8798;51.938;4.348;2022-10-31T00:16:19;101694.94;;;15.57;72.71
17362;BME280;8798;51.938;4.348;2022-10-31T00:18:48;101705.75;;;15.57;72.77
17362;BME280;8798;51.938;4.348;2022-10-31T00:21:18;101705.75;;;15.57;73.00
17362;BME280;8798;51.938;4.348;2022-10-31T00:23:45;101712.03;;;15.57;72.94
17362;BME280;8798;51.938;4.348;2022-10-31T00:26:13;101718.47;;;15.56;72.75
17362;BME280;8798;51.938;4.348;2022-10-31T00:28:41;101718.59;;;15.55;73.07
17362;BME280;8798;51.938;4.348;2022-10-31T00:31:10;101717.78;;;15.54;72.82
17362;BME280;8798;51.938;4.348;2022-10-31T00:33:39;101722.34;;;15.54;72.91
17362;BME280;8798;51.938;4.348;2022-10-31T00:36:11;101724.22;;;15.53;73.09
17362;BME280;8798;51.938;4.348;2022-10-31T00:38:41;101725.19;;;15.52;73.00
17362;BME280;8798;51.938;4.348;2022-10-31T00:41:09;101727.06;;;15.52;73.46
17362;BME280;8798;51.938;4.348;2022-10-31T00:43:37;101723.50;;;15.51;73.02
17362;BME280;8798;51.938;4.348;2022-10-31T00:46:05;101734.50;;;15.49;72.97
17362;BME280;8798;51.938;4.348;2022-10-31T00:48:32;101746.19;;;15.50;72.77
17362;BME280;8798;51.938;4.348;2022-10-31T00:51:00;101742.63;;;15.49;73.24
17362;BME280;8798;51.938;4.348;2022-10-31T00:53:28;101741.78;;;15.49;73.25
17362;BME280;8798;51.938;4.348;2022-10-31T00:55:57;101737.53;;;15.46;73.11
17362;BME280;8798;51.938;4.348;2022-10-31T00:58:25;101736.69;;;15.46;73.17
17362;BME280;8798;51.938;4.348;2022-10-31T01:00:52;101741.28;;;15.45;73.09
17362;BME280;8798;51.938;4.348;2022-10-31T01:03:22;101734.13;;;15.44;73.18
17362;BME280;8798;51.938;4.348;2022-10-31T01:05:58;101743.28;;;15.43;73.26
17362;BME280;8798;51.938;4.348;2022-10-31T01:08:26;101742.59;;;15.41;73.48
17362;BME280;8798;51.938;4.348;2022-10-31T01:11:05;101740.88;;;15.40;73.28
17362;BME280;8798;51.938;4.348;2022-10-31T01:13:33;101738.16;;;15.40;73.49
17362;BME280;8798;51.938;4.348;2022-10-31T01:16:04;101739.19;;;15.39;73.41
17362;BME280;8798;51.938;4.348;2022-10-31T01:18:33;101740.38;;;15.37;73.57
17362;BME280;8798;51.938;4.348;2022-10-31T01:21:02;101747.66;;;15.36;73.37
17362;BME280;8798;51.938;4.348;2022-10-31T01:23:31;101740.50;;;15.35;73.40
17362;BME280;8798;51.938;4.348;2022-10-31T01:26:06;101737.16;;;15.33;73.54
17362;BME280;8798;51.938;4.348;2022-10-31T01:28:35;101727.50;;;15.31;73.54
17362;BME280;8798;51.938;4.348;2022-10-31T01:31:06;101726.09;;;15.26;73.41
17362;BME280;8798;51.938;4.348;2022-10-31T01:33:34;101724.56;;;15.24;73.62
17362;BME280;8798;51.938;4.348;2022-10-31T01:36:11;101708.66;;;15.21;73.55
17362;BME280;8798;51.938;4.348;2022-10-31T01:38:39;101706.94;;;15.20;73.56
17362;BME280;8798;51.938;4.348;2022-10-31T01:41:10;101700.84;;;15.18;73.50
17362;BME280;8798;51.938;4.348;2022-10-31T01:43:46;101695.75;;;15.15;73.67
17362;BME280;8798;51.938;4.348;2022-10-31T01:46:17;101679.97;;;15.10;73.49
17362;BME280;8798;51.938;4.348;2022-10-31T01:48:46;101662.53;;;15.04;73.60
17362;BME280;8798;51.938;4.348;2022-10-31T01:51:15;101659.31;;;15.01;73.64
17362;BME280;8798;51.938;4.348;2022-10-31T01:53:45;101632.75;;;14.96;73.56
17362;BME280;8798;51.938;4.348;2022-10-31T01:56:16;101628.81;;;14.91;73.62
17362;BME280;8798;51.938;4.348;2022-10-31T01:58:45;101611.22;;;14.87;73.62
17362;BME280;8798;51.938;4.348;2022-10-31T02:01:14;101599.84;;;14.83;73.64
17362;BME280;8798;51.938;4.348;2022-10-31T02:03:44;101595.78;;;14.79;73.78
17362;BME280;8798;51.938;4.348;2022-10-31T02:06:21;101571.25;;;14.72;73.90
17362;BME280;8798;51.938;4.348;2022-10-31T02:08:52;101561.75;;;14.68;73.71
17362;BME280;8798;51.938;4.348;2022-10-31T02:11:22;101559.50;;;14.63;73.79
17362;BME280;8798;51.938;4.348;2022-10-31T02:13:50;101546.16;;;14.62;73.59
17362;BME280;8798;51.938;4.348;2022-10-31T02:16:18;101541.09;;;14.59;74.00
17362;BME280;8798;51.938;4.348;2022-10-31T02:18:47;101529.88;;;14.54;73.93
17362;BME280;8798;51.938;4.348;2022-10-31T02:21:19;101531.03;;;14.51;73.53
17362;BME280;8798;51.938;4.348;2022-10-31T02:24:12;101526.78;;;14.49;73.90
17362;BME280;8798;51.938;4.348;2022-10-31T02:27:07;101526.28;;;14.45;73.82
17362;BME280;8798;51.938;4.348;2022-10-31T02:30:07;101520.34;;;14.41;73.97
17362;BME280;8798;51.938;4.348;2022-10-31T02:32:51;101515.41;;;14.37;73.98
17362;BME280;8798;51.938;4.348;2022-10-31T02:35:28;101497.81;;;14.33;73.89
17362;BME280;8798;51.938;4.348;2022-10-31T02:38:06;101477.69;;;14.27;73.95
17362;BME280;8798;51.938;4.348;2022-10-31T02:40:44;101472.75;;;14.23;74.15
17362;BME280;8798;51.938;4.348;2022-10-31T02:43:20;101459.03;;;14.16;74.03
17362;BME280;8798;51.938;4.348;2022-10-31T02:45:53;101445.84;;;14.13;73.99
17362;BME280;8798;51.938;4.348;2022-10-31T02:48:28;101437.38;;;14.08;74.23
17362;BME280;8798;51.938;4.348;2022-10-31T02:50:59;101435.84;;;14.05;74.07
17362;BME280;8798;51.938;4.348;2022-10-31T02:53:31;101437.84;;;14.03;74.25
17362;BME280;8798;51.938;4.348;2022-10-31T02:56:02;101426.53;;;14.00;74.09
17362;BME280;8798;51.938;4.348;2022-10-31T02:58:33;101430.38;;;13.97;74.31
17362;BME280;8798;51.938;4.348;2022-10-31T03:07:27;101416.31;;;13.85;74.50
17362;BME280;8798;51.938;4.348;2022-10-31T03:10:04;101408.50;;;13.82;74.71
17362;BME280;8798;51.938;4.348;2022-10-31T03:12:39;101418.47;;;13.82;74.19
17362;BME280;8798;51.938;4.348;2022-10-31T03:15:18;101418.66;;;13.80;74.63
17362;BME280;8798;51.938;4.348;2022-10-31T03:17:52;101421.50;;;13.79;74.41
17362;BME280;8798;51.938;4.348;2022-10-31T03:20:24;101432.31;;;13.79;74.36
17362;BME280;8798;51.938;4.348;2022-10-31T03:22:56;101442.25;;;13.78;74.29
17362;BME280;8798;51.938;4.348;2022-10-31T03:25:25;101447.66;;;13.78;74.42
17362;BME280;8798;51.938;4.348;2022-10-31T03:27:55;101458.47;;;13.78;74.46
17362;BME280;8798;51.938;4.348;2022-10-31T03:30:24;101473.81;;;13.77;74.63
17362;BME280;8798;51.938;4.348;2022-10-31T03:32:55;101482.59;;;13.80;74.55
17362;BME280;8798;51.938;4.348;2022-10-31T03:35:26;101497.81;;;13.81;74.55
17362;BME280;8798;51.938;4.348;2022-10-31T03:37:56;101502.19;;;13.82;74.78
17362;BME280;8798;51.938;4.348;2022-10-31T03:40:35;101506.75;;;13.81;74.71
17362;BME280;8798;51.938;4.348;2022-10-31T03:43:07;101526.34;;;13.83;74.86
17362;BME280;8798;51.938;4.348;2022-10-31T03:45:41;101556.59;;;13.87;74.77
17362;BME280;8798;51.938;4.348;2022-10-31T03:48:11;101573.34;;;13.90;74.98
17362;BME280;8798;51.938;4.348;2022-10-31T03:50:45;101579.59;;;13.91;74.54
17362;BME280;8798;51.938;4.348;2022-10-31T03:53:24;101588.53;;;13.91;74.86
17362;BME280;8798;51.938;4.348;2022-10-31T03:55:55;101608.97;;;13.94;75.05
17362;BME280;8798;51.938;4.348;2022-10-31T03:58:27;101615.22;;;13.94;74.92
17362;BME280;8798;51.938;4.348;2022-10-31T04:01:00;101633.16;;;13.95;74.81
17362;BME280;8798;51.938;4.348;2022-10-31T04:03:31;101649.03;;;13.98;75.08
17362;BME280;8798;51.938;4.348;2022-10-31T04:06:04;101655.28;;;13.99;75.03
17362;BME280;8798;51.938;4.348;2022-10-31T04:08:40;101670.50;;;14.00;75.02
17362;BME280;8798;51.938;4.348;2022-10-31T04:11:10;101680.31;;;14.01;75.02
17362;BME280;8798;51.938;4.348;2022-10-31T04:13:40;101682.88;;;14.03;75.43
17362;BME280;8798;51.938;4.348;2022-10-31T04:16:10;101705.19;;;14.05;75.38
17362;BME280;8798;51.938;4.348;2022-10-31T04:18:43;101699.06;;;14.03;75.20
17362;BME280;8798;51.938;4.348;2022-10-31T04:21:10;101702.75;;;14.02;75.55
17362;BME280;8798;51.938;4.348;2022-10-31T04:23:39;101691.28;;;14.00;75.45
17362;BME280;8798;51.938;4.348;2022-10-31T04:26:08;101696.81;;;13.98;75.55
17362;BME280;8798;51.938;4.348;2022-10-31T04:28:37;101688.03;;;13.96;75.56
17362;BME280;8798;51.938;4.348;2022-10-31T04:31:05;101678.38;;;13.93;75.48
17362;BME280;8798;51.938;4.348;2022-10-31T04:33:33;101674.97;;;13.91;75.65
17362;BME280;8798;51.938;4.348;2022-10-31T04:36:00;101672.56;;;13.88;75.61
17362;BME280;8798;51.938;4.348;2022-10-31T04:38:28;101659.38;;;13.85;75.37
17362;BME280;8798;51.938;4.348;2022-10-31T04:40:57;101654.28;;;13.82;75.52
17362;BME280;8798;51.938;4.348;2022-10-31T04:43:25;101650.19;;;13.78;75.52
17362;BME280;8798;51.938;4.348;2022-10-31T04:45:53;101637.00;;;13.75;75.65
17362;BME280;8798;51.938;4.348;2022-10-31T04:48:20;101629.19;;;13.72;75.53
17362;BME280;8798;51.938;4.348;2022-10-31T04:50:48;101625.81;;;13.70;75.64
17362;BME280;8798;51.938;4.348;2022-10-31T04:53:16;101620.69;;;13.67;75.37
17362;BME280;8798;51.938;4.348;2022-10-31T04:55:43;101620.88;;;13.65;75.63
17362;BME280;8798;51.938;4.348;2022-10-31T04:58:12;101620.00;;;13.65;75.79
17362;BME280;8798;51.938;4.348;2022-10-31T05:00:40;101618.44;;;13.62;75.35
17362;BME280;8798;51.938;4.348;2022-10-31T05:03:08;101615.09;;;13.60;75.68
17362;BME280;8798;51.938;4.348;2022-10-31T05:05:36;101616.06;;;13.59;75.46
17362;BME280;8798;51.938;4.348;2022-10-31T05:08:04;101622.47;;;13.58;75.63
17362;BME280;8798;51.938;4.348;2022-10-31T05:10:31;101623.31;;;13.59;75.55
17362;BME280;8798;51.938;4.348;2022-10-31T05:13:01;101627.03;;;13.58;75.74
17362;BME280;8798;51.938;4.348;2022-10-31T05:15:31;101631.56;;;13.57;75.89
17362;BME280;8798;51.938;4.348;2022-10-31T05:17:59;101640.38;;;13.59;76.09
17362;BME280;8798;51.938;4.348;2022-10-31T05:20:29;101653.56;;;13.62;76.05
17362;BME280;8798;51.938;4.348;2022-10-31T05:22:58;101666.06;;;13.63;76.13
17362;BME280;8798;51.938;4.348;2022-10-31T05:25:27;101676.88;;;13.63;75.68
17362;BME280;8798;51.938;4.348;2022-10-31T05:27:56;101666.38;;;13.60;75.81
17362;BME280;8798;51.938;4.348;2022-10-31T05:30:27;101655.84;;;13.57;75.95
17362;BME280;8798;51.938;4.348;2022-10-31T05:32:56;101655.19;;;13.55;76.29
17362;BME280;8798;51.938;4.348;2022-10-31T05:35:27;101648.22;;;13.52;76.13
17362;BME280;8798;51.938;4.348;2022-10-31T05:37:55;101627.94;;;13.48;75.90
17362;BME280;8798;51.938;4.348;2022-10-31T05:40:25;101628.25;;;13.45;75.75
17362;BME280;8798;51.938;4.348;2022-10-31T05:42:54;101616.03;;;13.41;76.03
17362;BME280;8798;51.938;4.348;2022-10-31T05:45:23;101609.09;;;13.39;76.15
17362;BME280;8798;51.938;4.348;2022-10-31T05:47:53;101604.00;;;13.36;76.36
17362;BME280;8798;51.938;4.348;2022-10-31T05:50:23;101597.22;;;13.31;76.34
17362;BME280;8798;51.938;4.348;2022-10-31T05:52:55;101589.44;;;13.28;76.25
17362;BME280;8798;51.938;4.348;2022-10-31T05:55:24;101584.16;;;13.27;76.36
17362;BME280;8798;51.938;4.348;2022-10-31T05:57:52;101580.03;;;13.23;75.96
17362;BME280;8798;51.938;4.348;2022-10-31T06:00:20;101571.25;;;13.21;76.56
17362;BME280;8798;51.938;4.348;2022-10-31T06:02:48;101564.31;;;13.18;76.17
17362;BME280;8798;51.938;4.348;2022-10-31T06:05:16;101556.50;;;13.15;76.25
17362;BME280;8798;51.938;4.348;2022-10-31T06:07:45;101558.66;;;13.11;76.04
17362;BME280;8798;51.938;4.348;2022-10-31T06:10:13;101540.09;;;13.08;75.98
17362;BME280;8798;51.938;4.348;2022-10-31T06:12:41;101544.78;;;13.06;76.27
17362;BME280;8798;51.938;4.348;2022-10-31T06:15:09;101546.78;;;13.04;76.57
17362;BME280;8798;51.938;4.348;2022-10-31T06:17:36;101537.16;;;13.02;76.32
17362;BME280;8798;51.938;4.348;2022-10-31T06:20:05;101526.66;;;12.99;76.26
17362;BME280;8798;51.938;4.348;2022-10-31T06:22:33;101517.88;;;12.97;75.92
17362;BME280;8798;51.938;4.348;2022-10-31T06:25:03;101522.69;;;12.93;76.52
17362;BME280;8798;51.938;4.348;2022-10-31T06:27:30;101519.34;;;12.91;76.05
17362;BME280;8798;51.938;4.348;2022-10-31T06:29:58;101515.09;;;12.88;76.65
17362;BME280;8798;51.938;4.348;2022-10-31T06:32:26;101521.63;;;12.86;75.90
17362;BME280;8798;51.938;4.348;2022-10-31T06:34:54;101508.28;;;12.84;76.33
17362;BME280;8798;51.938;4.348;2022-10-31T06:37:21;101512.97;;;12.82;76.72
17362;BME280;8798;51.938;4.348;2022-10-31T06:39:49;101515.66;;;12.82;76.39
17362;BME280;8798;51.938;4.348;2022-10-31T06:42:18;101515.81;;;12.81;76.17
17362;BME280;8798;51.938;4.348;2022-10-31T06:44:46;101522.91;;;12.82;76.02
17362;BME280;8798;51.938;4.348;2022-10-31T06:47:13;101530.16;;;12.81;76.03
17362;BME280;8798;51.938;4.348;2022-10-31T06:49:41;101536.41;;;12.82;76.09
17362;BME280;8798;51.938;4.348;2022-10-31T06:52:09;101550.72;;;12.82;76.22
17362;BME280;8798;51.938;4.348;2022-10-31T06:54:37;101556.81;;;12.84;76.51
17362;BME280;8798;51.938;4.348;2022-10-31T06:57:04;101584.31;;;12.88;76.70
17362;BME280;8798;51.938;4.348;2022-10-31T06:59:33;101599.34;;;12.90;76.58
17362;BME280;8798;51.938;4.348;2022-10-31T07:02:01;101631.16;;;12.97;76.18
17362;BME280;8798;51.938;4.348;2022-10-31T07:04:29;101655.81;;;13.02;76.11
17362;BME280;8798;51.938;4.348;2022-10-31T07:06:57;101686.75;;;13.07;76.63
17362;BME280;8798;51.938;4.348;2022-10-31T07:09:24;101710.59;;;13.12;76.79
17362;BME280;8798;51.938;4.348;2022-10-31T07:11:52;101738.81;;;13.18;76.63
17362;BME280;8798;51.938;4.348;2022-10-31T07:14:20;101759.97;;;13.22;76.24
17362;BME280;8798;51.938;4.348;2022-10-31T07:16:50;101782.97;;;13.26;76.51
17362;BME280;8798;51.938;4.348;2022-10-31T07:19:18;101802.31;;;13.31;76.58
17362;BME280;8798;51.938;4.348;2022-10-31T07:21:46;101826.16;;;13.36;76.40
17362;BME280;8798;51.938;4.348;2022-10-31T07:24:14;101841.06;;;13.40;76.81
17362;BME280;8798;51.938;4.348;2022-10-31T07:26:41;101862.19;;;13.45;76.34
17362;BME280;8798;51.938;4.348;2022-10-31T07:29:09;101886.91;;;13.50;76.89
17362;BME280;8798;51.938;4.348;2022-10-31T07:31:37;101903.69;;;13.53;76.58
17362;BME280;8798;51.938;4.348;2022-10-31T07:34:06;101925.81;;;13.57;76.68
17362;BME280;8798;51.938;4.348;2022-10-31T07:36:34;101936.38;;;13.60;76.70
17362;BME280;8798;51.938;4.348;2022-10-31T07:39:02;101954.81;;;13.65;76.70
17362;BME280;8798;51.938;4.348;2022-10-31T07:41:29;101967.16;;;13.67;76.74
17362;BME280;8798;51.938;4.348;2022-10-31T07:43:57;101971.59;;;13.68;76.63
17362;BME280;8798;51.938;4.348;2022-10-31T07:46:25;101983.94;;;13.71;77.02
17362;BME280;8798;51.938;4.348;2022-10-31T07:48:52;101992.59;;;13.74;77.12
17362;BME280;8798;51.938;4.348;2022-10-31T07:51:21;101999.72;;;13.75;76.97
17362;BME280;8798;51.938;4.348;2022-10-31T07:53:50;102011.06;;;13.79;77.14
17362;BME280;8798;51.938;4.348;2022-10-31T07:56:18;102029.69;;;13.82;76.78
17362;BME280;8798;51.938;4.348;2022-10-31T07:58:45;102034.09;;;13.83;77.09
17362;BME280;8798;51.938;4.348;2022-10-31T08:01:13;102042.09;;;13.85;77.07
17362;BME280;8798;51.938;4.348;2022-10-31T08:03:41;102049.88;;;13.88;77.24
17362;BME280;8798;51.938;4.348;2022-10-31T08:06:08;102055.13;;;13.89;77.21
17362;BME280;8798;51.938;4.348;2022-10-31T08:08:37;102061.25;;;13.91;77.17
17362;BME280;8798;51.938;4.348;2022-10-31T08:11:05;102069.94;;;13.95;77.01
17362;BME280;8798;51.938;4.348;2022-10-31T08:13:33;102082.31;;;13.97;77.19
17362;BME280;8798;51.938;4.348;2022-10-31T08:16:01;102097.38;;;14.00;77.19
17362;BME280;8798;51.938;4.348;2022-10-31T08:18:30;102099.06;;;14.01;77.18
17362;BME280;8798;51.938;4.348;2022-10-31T08:20:58;102097.22;;;14.02;77.16
17362;BME280;8798;51.938;4.348;2022-10-31T08:23:26;102103.50;;;14.02;77.31
17362;BME280;8798;51.938;4.348;2022-10-31T08:25:55;102096.38;;;14.01;77.41
17362;BME280;8798;51.938;4.348;2022-10-31T08:28:24;102091.97;;;14.00;77.36
17362;BME280;8798;51.938;4.348;2022-10-31T08:30:52;102086.56;;;14.00;77.49
17362;BME280;8798;51.938;4.348;2022-10-31T08:33:20;102090.13;;;14.01;77.46
17362;BME280;8798;51.938;4.348;2022-10-31T08:35:47;102099.78;;;14.03;77.64
17362;BME280;8798;51.938;4.348;2022-10-31T08:38:16;102121.09;;;14.06;77.58
17362;BME280;8798;51.938;4.348;2022-10-31T08:40:48;102121.69;;;14.10;77.82
17362;BME280;8798;51.938;4.348;2022-10-31T08:43:18;102134.19;;;14.11;77.91
17362;BME280;8798;51.938;4.348;2022-10-31T08:45:48;102140.19;;;14.14;77.84
17362;BME280;8798;51.938;4.348;2022-10-31T08:48:16;102141.03;;;14.15;77.54
17362;BME280;8798;51.938;4.348;2022-10-31T08:50:45;102153.22;;;14.19;77.55
17362;BME280;8798;51.938;4.348;2022-10-31T08:53:14;102169.19;;;14.22;77.97
17362;BME280;8798;51.938;4.348;2022-10-31T08:55:42;102176.16;;;14.25;77.57
17362;BME280;8798;51.938;4.348;2022-10-31T08:58:12;102181.28;;;14.28;77.75
17362;BME280;8798;51.938;4.348;2022-10-31T09:00:42;102195.50;;;14.30;78.08
17362;BME280;8798;51.938;4.348;2022-10-31T09:03:12;102209.44;;;14.35;77.91
17362;BME280;8798;51.938;4.348;2022-10-31T09:05:39;102223.50;;;14.38;77.89
17362;BME280;8798;51.938;4.348;2022-10-31T09:08:08;102235.75;;;14.43;77.72
17362;BME280;8798;51.938;4.348;2022-10-31T09:10:42;102253.25;;;14.48;78.09
17362;BME280;8798;51.938;4.348;2022-10-31T09:13:11;102272.63;;;14.53;77.97
17362;BME280;8798;51.938;4.348;2022-10-31T09:15:42;102291.03;;;14.59;78.11
17362;BME280;8798;51.938;4.348;2022-10-31T09:18:11;102303.25;;;14.63;78.10
17362;BME280;8798;51.938;4.348;2022-10-31T09:20:40;102319.03;;;14.68;78.01
17362;BME280;8798;51.938;4.348;2022-10-31T09:23:10;102349.81;;;14.77;78.09
17362;BME280;8798;51.938;4.348;2022-10-31T09:25:38;102377.00;;;14.85;78.06
17362;BME280;8798;51.938;4.348;2022-10-31T09:28:15;102391.81;;;14.91;78.04
17362;BME280;8798;51.938;4.348;2022-10-31T09:30:46;102418.16;;;14.98;78.11
17362;BME280;8798;51.938;4.348;2022-10-31T09:33:14;102436.56;;;15.04;78.22
17362;BME280;8798;51.938;4.348;2022-10-31T09:35:42;102443.41;;;15.09;78.03
17362;BME280;8798;51.938;4.348;2022-10-31T09:38:11;102469.03;;;15.14;78.20
17362;BME280;8798;51.938;4.348;2022-10-31T09:40:42;102474.03;;;15.19;78.31
17362;BME280;8798;51.938;4.348;2022-10-31T09:43:17;102488.97;;;15.23;78.23
17362;BME280;8798;51.938;4.348;2022-10-31T09:45:54;102488.72;;;15.26;78.29
17362;BME280;8798;51.938;4.348;2022-10-31T09:48:50;102474.19;;;15.27;78.25
17362;BME280;8798;51.938;4.348;2022-10-31T09:51:25;102469.78;;;15.26;78.15
17362;BME280;8798;51.938;4.348;2022-10-31T09:54:00;102456.22;;;15.26;78.34
17362;BME280;8798;51.938;4.348;2022-10-31T09:56:28;102456.06;;;15.27;78.22
17362;BME280;8798;51.938;4.348;2022-10-31T09:58:59;102445.25;;;15.27;78.47
17362;BME280;8798;51.938;4.348;2022-10-31T10:01:40;102438.13;;;15.26;78.34
17362;BME280;8798;51.938;4.348;2022-10-31T10:04:24;102421.03;;;15.26;78.23
17362;BME280;8798;51.938;4.348;2022-10-31T10:06:57;102400.34;;;15.25;78.41
17362;BME280;8798;51.938;4.348;2022-10-31T10:09:26;102400.34;;;15.25;78.34
17362;BME280;8798;51.938;4.348;2022-10-31T10:12:01;102407.34;;;15.27;78.25
17362;BME280;8798;51.938;4.348;2022-10-31T10:14:57;102408.91;;;15.30;78.53
17362;BME280;8798;51.938;4.348;2022-10-31T10:17:37;102413.03;;;15.34;78.25
17362;BME280;8798;51.938;4.348;2022-10-31T10:20:18;102420.88;;;15.37;78.49
17362;BME280;8798;51.938;4.348;2022-10-31T10:22:55;102432.97;;;15.43;78.30
17362;BME280;8798;51.938;4.348;2022-10-31T10:25:30;102458.47;;;15.50;78.40
17362;BME280;8798;51.938;4.348;2022-10-31T10:28:11;102479.28;;;15.59;78.32
17362;BME280;8798;51.938;4.348;2022-10-31T10:30:44;102526.09;;;15.71;78.49
17362;BME280;8798;51.938;4.348;2022-10-31T10:33:19;102563.00;;;15.82;78.44
17362;BME280;8798;51.938;4.348;2022-10-31T10:35:50;102590.97;;;15.92;78.45
17362;BME280;8798;51.938;4.348;2022-10-31T10:38:25;102604.81;;;15.99;78.50
17362;BME280;8798;51.938;4.348;2022-10-31T10:40:54;102609.94;;;16.02;78.60
17362;BME280;8798;51.938;4.348;2022-10-31T10:43:26;102606.06;;;16.04;78.19
17362;BME280;8798;51.938;4.348;2022-10-31T10:46:18;102597.94;;;16.04;78.29
17362;BME280;8798;51.938;4.348;2022-10-31T10:49:13;102593.22;;;16.06;78.23
17362;BME280;8798;51.938;4.348;2022-10-31T10:51:45;102591.09;;;16.10;78.48
17362;BME280;8798;51.938;4.348;2022-10-31T10:54:48;102593.53;;;16.13;78.22
17362;BME280;8798;51.938;4.348;2022-10-31T10:57:28;102596.66;;;16.18;78.26
17362;BME280;8798;51.938;4.348;2022-10-31T10:59:59;102618.47;;;16.26;78.26
17362;BME280;8798;51.938;4.348;2022-10-31T11:02:32;102638.44;;;16.35;78.26
17362;BME280;8798;51.938;4.348;2022-10-31T11:05:01;102675.53;;;16.44;78.18
17362;BME280;8798;51.938;4.348;2022-10-31T11:07:38;102698.25;;;16.53;78.35
17362;BME280;8798;51.938;4.348;2022-10-31T11:10:11;102714.81;;;16.60;78.08
17362;BME280;8798;51.938;4.348;2022-10-31T11:12:43;102718.50;;;16.68;78.21
17362;BME280;8798;51.938;4.348;2022-10-31T11:15:19;102731.75;;;16.71;77.88
17362;BME280;8798;51.938;4.348;2022-10-31T11:17:49;102718.19;;;16.71;78.13
17362;BME280;8798;51.938;4.348;2022-10-31T11:20:29;102687.78;;;16.68;78.01
17362;BME280;8798;51.938;4.348;2022-10-31T11:23:04;102669.81;;;16.67;77.70
17362;BME280;8798;51.938;4.348;2022-10-31T11:25:33;102653.53;;;16.67;77.92
17362;BME280;8798;51.938;4.348;2022-10-31T11:28:02;102634.66;;;16.65;77.79
17362;BME280;8798;51.938;4.348;2022-10-31T11:30:35;102617.53;;;16.65;77.87
17362;BME280;8798;51.938;4.348;2022-10-31T11:33:03;102594.97;;;16.64;77.55
17362;BME280;8798;51.938;4.348;2022-10-31T11:35:32;102586.66;;;16.66;77.93
17362;BME280;8798;51.938;4.348;2022-10-31T11:38:04;102585.81;;;16.65;77.61
17362;BME280;8798;51.938;4.348;2022-10-31T11:40:32;102578.38;;;16.67;77.63
17362;BME280;8798;51.938;4.348;2022-10-31T11:42:59;102582.47;;;16.71;77.35
17362;BME280;8798;51.938;4.348;2022-10-31T11:45:30;102592.91;;;16.76;77.61
17362;BME280;8798;51.938;4.348;2022-10-31T11:47:59;102600.63;;;16.81;77.79
17362;BME280;8798;51.938;4.348;2022-10-31T11:50:34;102617.19;;;16.87;77.71
17362;BME280;8798;51.938;4.348;2022-10-31T11:53:12;102616.75;;;16.92;77.75
17362;BME280;8798;51.938;4.348;2022-10-31T11:55:42;102618.31;;;16.94;77.57
17362;BME280;8798;51.938;4.348;2022-10-31T11:58:20;102619.69;;;16.98;77.73
17362;BME280;8798;51.938;4.348;2022-10-31T12:00:49;102630.09;;;17.03;77.73
17362;BME280;8798;51.938;4.348;2022-10-31T12:03:29;102651.06;;;17.11;77.66
17362;BME280;8798;51.938;4.348;2022-10-31T12:06:06;102688.78;;;17.24;77.48
17362;BME280;8798;51.938;4.348;2022-10-31T12:08:36;102720.31;;;17.34;77.63
17362;BME280;8798;51.938;4.348;2022-10-31T12:11:19;102741.16;;;17.44;77.41
17362;BME280;8798;51.938;4.348;2022-10-31T12:13:58;102757.69;;;17.50;77.71
17362;BME280;8798;51.938;4.348;2022-10-31T12:16:33;102776.84;;;17.58;77.80
17362;BME280;8798;51.938;4.348;2022-10-31T12:19:05;102796.69;;;17.69;77.64
17362;BME280;8798;51.938;4.348;2022-10-31T12:21:57;102809.66;;;17.75;77.49
17362;BME280;8798;51.938;4.348;2022-10-31T12:24:37;102810.97;;;17.80;77.44
17362;BME280;8798;51.938;4.348;2022-10-31T12:27:18;102809.66;;;17.84;77.21
17362;BME280;8798;51.938;4.348;2022-10-31T12:30:02;102800.31;;;17.87;77.52
17362;BME280;8798;51.938;4.348;2022-10-31T12:32:43;102788.28;;;17.90;77.45
17362;BME280;8798;51.938;4.348;2022-10-31T12:35:36;102741.66;;;17.84;77.29
17362;BME280;8798;51.938;4.348;2022-10-31T12:38:22;102710.38;;;17.80;77.46
17362;BME280;8798;51.938;4.348;2022-10-31T12:41:04;102696.63;;;17.82;77.02
17362;BME280;8798;51.938;4.348;2022-10-31T12:43:45;102699.00;;;17.85;77.11
17362;BME280;8798;51.938;4.348;2022-10-31T12:46:23;102688.69;;;17.89;77.33
17362;BME280;8798;51.938;4.348;2022-10-31T12:49:10;102674.94;;;17.90;77.09
17362;BME280;8798;51.938;4.348;2022-10-31T12:51:46;102653.34;;;17.89;77.21
17362;BME280;8798;51.938;4.348;2022-10-31T12:54:29;102620.16;;;17.85;77.03
17362;BME280;8798;51.938;4.348;2022-10-31T12:57:09;102583.25;;;17.82;77.08
17362;BME280;8798;51.938;4.348;2022-10-31T12:59:43;102552.81;;;17.79;76.81
17362;BME280;8798;51.938;4.348;2022-10-31T13:02:16;102531.19;;;17.77;77.07
17362;BME280;8798;51.938;4.348;2022-10-31T13:04:49;102520.50;;;17.76;77.06
17362;BME280;8798;51.938;4.348;2022-10-31T13:07:23;102495.16;;;17.75;76.82
17362;BME280;8798;51.938;4.348;2022-10-31T13:09:58;102485.16;;;17.76;76.63
17362;BME280;8798;51.938;4.348;2022-10-31T13:12:29;102483.13;;;17.78;76.94
17362;BME280;8798;51.938;4.348;2022-10-31T13:15:05;102479.09;;;17.82;77.17
17362;BME280;8798;51.938;4.348;2022-10-31T13:17:43;102469.94;;;17.83;77.00
17362;BME280;8798;51.938;4.348;2022-10-31T13:20:17;102470.63;;;17.85;76.75
17362;BME280;8798;51.938;4.348;2022-10-31T13:22:49;102457.72;;;17.87;76.82
17362;BME280;8798;51.938;4.348;2022-10-31T13:25:23;102446.84;;;17.87;77.03
17362;BME280;8798;51.938;4.348;2022-10-31T13:27:54;102444.81;;;17.89;76.92
17362;BME280;8798;51.938;4.348;2022-10-31T13:30:25;102423.91;;;17.90;76.98